New Richmond Regional Airport New Richmond US
ICAO: KRNH
IATA: RNH
Category: Medium
Scheduled Services: No

Elevation: 998 ft
TransAlt. 18000 ft.

Airport Communications:
MINNEAPOLIS APP/DEP:121.2
AWOS 3:120
CTAF/UNICOM:122.975

KRNH Zoom In..

Runways:

(A) RW 04 length 2050 ft width 75 ft
---- / hdg 42

(B) RW 14 length 5507 ft width 75 ft
---- / hdg 141

(C) RW 22 length 2050 ft width 75 ft
---- / hdg 222

(D) RW 32 length 5507 ft width 75 ft
---- / hdg 321

Location; KRNH
Day. 24 / Time. 07.55 Zulu
* Altimeter: 30.06
* Temperature: 20° c. 68°f.
* Wind from: 170° Speed 10 kn.
Dewpoint: 16° c.
Visibility: 10 Statute Miles.
Clouds: Scattered 8500 ft.

KRNH 240755Z AUTO 17010KT 10SM SCT085 20/16 A3006 RMK AO2 T02020155


Wind From 170°
Speed 10 kn.

 
 
jpsmedia.com for Web Design SOUNDCLOUD worldairports.se 2018   terms of use